Terminal Aerodrome Forecast
Issued by NWS

Home | Current Version | Previous Version | Text Only | Print | Product List | Glossary On
Versions: 1 2 3 4 5 6 7 8 9 10 11 12 13 14 15 16 17 18 19 20 21 22 23
000
FTUS41 KPHI 261700 RRA
TAFMIV
TAF
KMIV 261743Z 2618/2718 04016G26KT P6SM -RA OVC008
      TEMPO 2618/2621 5SM -RASN BR
     FM262100 04020G30KT 2SM -SN OVC008
     FM270200 02020G30KT 3/4SM -SN OVC003
     FM271600 35018G28KT 3SM -SN BLSN OVC009=

USA.gov is the U.S. government's official web portal to all federal, state and local government web resources and services.